Hope, Texas
Current Conditions -  °F | °C
As of 1:16 AM on Thursday 18 Dec 2014 (Local Time) from KVCT Reporting Station
Haze Haze  
Wind Chill: 63°   Ceiling: 8000
Heat Index: 63°   Visibility: 3mi
Dew Point: 62°   Wind: 6mph
Humidity: 97%   Direction: 70°ENE
Pressure: 30.06"   Gusts: NA
Location:  29.2421°N, 97.0692°W
Report Text: KVCT 180716Z AUTO 07005KT 3SM BR SCT022 BKN080 17/17 A3006 RMK AO2 T01720167
Loading
Personal Weather Stations






























Interactive Weather Map New forecast layout! Learn more

10-Day Weather Forecast

Advertisements
Track Severe Weather on mobile